Time;durP1;ratioP1;P1;durP2;ratioP2;P2;SDS_P1;SDS_P2;PMS_P1;PMS_P2;Temp;Humidity;BMP_temperature;BMP_pressure;BME280_temperature;BME280_humidity;BME280_pressure;Samples;Min_cycle;Max_cycle;Signal;HPM_P1;HPM_P2
2020/12/08 00:01:26;;;;;;;25.43;13.00;;;3.10;99.90;;;;;;5045248;28;20407;-56
2020/12/08 00:03:52;;;;;;;24.60;12.38;;;3.20;99.90;;;;;;5049168;28;20396;-55
2020/12/08 00:06:17;;;;;;;22.65;12.43;;;5.20;99.90;;;;;;5045595;28;20942;-60
2020/12/08 00:08:43;;;;;;;22.87;12.30;;;3.20;99.90;;;;;;5032165;28;20891;-54
2020/12/08 00:11:16;;;;;;;21.15;12.13;;;4.50;99.90;;;;;;5049175;28;20431;-54
2020/12/08 00:13:46;;;;;;;21.55;12.02;;;3.10;99.90;;;;;;5048244;28;20396;-54
2020/12/08 00:16:13;;;;;;;21.73;11.88;;;3.10;99.90;;;;;;5048339;28;20413;-55
2020/12/08 00:18:39;;;;;;;20.73;11.68;;;5.50;99.90;;;;;;5048761;28;20393;-55
2020/12/08 00:21:05;;;;;;;21.90;12.38;;;3.10;99.90;;;;;;5048359;28;20401;-55
2020/12/08 00:23:31;;;;;;;25.25;12.18;;;3.10;99.90;;;;;;5049088;28;20439;-55
2020/12/08 00:25:58;;;;;;;23.95;13.05;;;3.00;99.90;;;;;;5048511;28;20397;-55
2020/12/08 00:28:23;;;;;;;24.65;12.35;;;3.10;99.90;;;;;;5049121;28;20451;-55
2020/12/08 00:30:50;;;;;;;23.60;12.90;;;3.80;99.90;;;;;;5047731;28;20759;-55
2020/12/08 00:33:16;;;;;;;24.25;13.10;;;3.10;99.90;;;;;;5048274;28;20706;-58
2020/12/08 00:35:41;;;;;;;23.60;12.27;;;3.10;99.90;;;;;;5045689;28;20401;-55
2020/12/08 00:38:07;;;;;;;29.50;16.60;;;5.40;99.90;;;;;;5048129;28;20402;-55
2020/12/08 00:40:32;;;;;;;25.30;13.32;;;3.00;99.90;;;;;;5049222;28;20736;-55
2020/12/08 00:42:58;;;;;;;24.63;14.00;;;3.00;99.90;;;;;;5047871;28;20458;-55
2020/12/08 00:45:24;;;;;;;26.93;13.57;;;5.60;99.90;;;;;;5049250;28;20454;-55
2020/12/08 00:47:49;;;;;;;24.30;13.05;;;5.40;99.90;;;;;;5048986;28;20420;-55
2020/12/08 00:50:15;;;;;;;26.67;14.20;;;3.90;99.90;;;;;;5048699;28;20416;-55
2020/12/08 00:52:41;;;;;;;23.07;12.00;;;5.50;99.90;;;;;;5047497;28;20405;-56
2020/12/08 00:55:07;;;;;;;24.10;13.90;;;4.40;99.90;;;;;;5049534;28;20442;-55
2020/12/08 00:57:34;;;;;;;24.42;13.77;;;3.20;99.90;;;;;;5047099;28;20389;-55
2020/12/08 00:59:59;;;;;;;27.52;13.98;;;3.30;99.90;;;;;;5049739;28;20377;-55
2020/12/08 01:02:25;;;;;;;24.30;13.03;;;3.50;99.90;;;;;;5048134;28;20389;-55
2020/12/08 01:04:51;;;;;;;22.43;12.57;;;3.70;99.90;;;;;;5048359;28;20410;-57
2020/12/08 01:07:17;;;;;;;21.77;12.30;;;3.40;99.90;;;;;;5049944;28;20961;-55
2020/12/08 01:09:43;;;;;;;22.85;12.70;;;3.60;99.90;;;;;;5046990;28;20421;-55
2020/12/08 01:12:08;;;;;;;24.27;13.35;;;5.30;99.90;;;;;;5048376;28;20458;-55
2020/12/08 01:14:34;;;;;;;24.40;13.70;;;3.40;99.90;;;;;;5047938;28;20878;-55
2020/12/08 01:17:01;;;;;;;25.13;13.55;;;4.20;99.90;;;;;;5050000;28;20908;-54
2020/12/08 01:19:27;;;;;;;27.17;13.77;;;3.40;99.90;;;;;;5046578;28;20393;-54
2020/12/08 01:21:54;;;;;;;26.80;15.00;;;3.50;99.90;;;;;;5042093;28;20882;-54
2020/12/08 01:24:20;;;;;;;24.38;14.48;;;3.40;99.90;;;;;;5046001;28;20484;-60
2020/12/08 01:26:46;;;;;;;28.52;15.27;;;3.50;99.90;;;;;;5048846;28;20377;-54
2020/12/08 01:29:12;;;;;;;26.15;13.02;;;3.50;99.90;;;;;;5046894;28;20440;-55
2020/12/08 01:31:37;;;;;;;24.98;13.40;;;3.50;99.90;;;;;;5047317;28;20428;-54
2020/12/08 01:34:03;;;;;;;22.90;12.70;;;3.40;99.90;;;;;;5052737;28;20938;-54
2020/12/08 01:36:29;;;;;;;25.40;14.18;;;4.50;99.90;;;;;;5049905;28;20405;-56
2020/12/08 01:38:55;;;;;;;28.30;14.02;;;3.60;99.90;;;;;;5052880;28;20381;-55
2020/12/08 01:41:21;;;;;;;25.83;14.30;;;3.50;99.90;;;;;;5050989;28;20955;-60
2020/12/08 01:43:51;;;;;;;26.00;13.47;;;3.50;99.90;;;;;;5052125;28;20859;-55
2020/12/08 01:46:21;;;;;;;28.15;14.75;;;3.50;99.90;;;;;;5051122;28;20397;-54
2020/12/08 01:48:49;;;;;;;26.95;13.95;;;3.60;99.90;;;;;;5051635;28;20420;-55
2020/12/08 01:51:20;;;;;;;26.70;14.52;;;3.50;99.90;;;;;;5050811;28;20409;-55
2020/12/08 01:53:48;;;;;;;31.80;15.77;;;1.70;99.90;;;;;;5052298;28;20856;-54
2020/12/08 01:56:14;;;;;;;29.15;15.02;;;4.20;99.90;;;;;;5052818;28;20579;-54
2020/12/08 01:58:40;;;;;;;30.05;15.93;;;6.10;99.90;;;;;;5049962;28;20393;-55
2020/12/08 02:01:08;;;;;;;29.77;15.45;;;3.60;99.90;;;;;;5052689;28;20389;-55
2020/12/08 02:03:34;;;;;;;29.13;14.30;;;5.30;99.90;;;;;;5081175;28;20412;-56
2020/12/08 02:05:59;;;;;;;28.80;14.77;;;3.60;99.90;;;;;;5050527;28;20405;-56
2020/12/08 02:08:29;;;;;;;26.67;14.00;;;3.70;99.90;;;;;;5051573;28;20417;-54
2020/12/08 02:10:56;;;;;;;26.38;14.82;;;4.60;99.90;;;;;;5050112;28;20854;-54
2020/12/08 02:13:22;;;;;;;29.63;15.77;;;5.10;99.90;;;;;;5052008;28;20382;-59
2020/12/08 02:15:47;;;;;;;27.53;15.63;;;3.70;99.90;;;;;;5052284;28;20377;-53
2020/12/08 02:18:13;;;;;;;27.60;15.00;;;3.60;99.90;;;;;;5049944;28;20402;-54
2020/12/08 02:20:41;;;;;;;27.65;14.73;;;3.60;99.90;;;;;;5050157;28;20501;-54
2020/12/08 02:23:06;;;;;;;27.80;14.77;;;3.70;99.90;;;;;;5049766;28;20402;-53
2020/12/08 02:25:32;;;;;;;31.57;15.00;;;3.80;99.90;;;;;;5050356;28;20384;-54
2020/12/08 02:27:58;;;;;;;29.35;15.73;;;5.60;99.90;;;;;;5050558;28;20420;-53
2020/12/08 02:30:23;;;;;;;28.50;14.77;;;3.60;99.90;;;;;;5050895;28;20470;-54
2020/12/08 02:32:49;;;;;;;24.60;13.37;;;3.50;99.90;;;;;;5048158;28;20416;-54
2020/12/08 02:35:15;;;;;;;30.52;15.95;;;3.50;99.90;;;;;;5051310;28;20747;-54
2020/12/08 02:37:40;;;;;;;30.65;15.90;;;3.40;99.90;;;;;;5049134;28;20480;-54
2020/12/08 02:40:06;;;;;;;29.80;15.27;;;5.80;99.90;;;;;;5051432;28;20386;-54
2020/12/08 02:42:32;;;;;;;32.58;15.60;;;3.40;99.90;;;;;;5050874;28;20456;-57
2020/12/08 02:44:58;;;;;;;31.02;15.65;;;3.50;99.90;;;;;;5049050;28;20397;-54
2020/12/08 02:47:24;;;;;;;31.30;15.90;;;3.40;99.90;;;;;;5050692;28;20373;-54
2020/12/08 02:49:54;;;;;;;32.40;16.30;;;3.30;99.90;;;;;;5051582;28;20438;-56
2020/12/08 02:52:20;;;;;;;34.53;17.40;;;3.30;99.90;;;;;;5048945;28;20397;-56
2020/12/08 02:54:46;;;;;;;30.08;15.25;;;5.70;99.90;;;;;;5049727;28;20404;-54
2020/12/08 02:57:11;;;;;;;29.67;16.20;;;3.30;99.90;;;;;;5050890;28;20385;-55
2020/12/08 02:59:37;;;;;;;30.70;14.97;;;3.50;99.90;;;;;;5048938;28;20732;-55
2020/12/08 03:02:03;;;;;;;32.13;15.80;;;3.40;99.90;;;;;;5051350;28;20382;-55
2020/12/08 03:04:29;;;;;;;28.92;15.38;;;4.90;99.90;;;;;;5048547;28;20397;-59
2020/12/08 03:06:54;;;;;;;30.45;16.08;;;3.40;99.90;;;;;;5050551;28;20734;-56
2020/12/08 03:09:20;;;;;;;33.33;15.90;;;4.90;99.90;;;;;;5048377;28;20742;-61
2020/12/08 03:11:46;;;;;;;33.50;16.40;;;3.40;99.90;;;;;;5050996;28;20427;-55
2020/12/08 03:14:12;;;;;;;28.48;15.05;;;3.50;99.90;;;;;;5050529;28;20468;-55
2020/12/08 03:16:37;;;;;;;35.43;17.17;;;3.60;99.90;;;;;;5046372;28;20879;-55
2020/12/08 03:19:03;;;;;;;30.10;15.47;;;3.60;99.90;;;;;;5051169;28;20440;-55
2020/12/08 03:21:33;;;;;;;30.27;15.10;;;5.70;99.90;;;;;;5048315;28;20408;-55
2020/12/08 03:23:59;;;;;;;30.08;15.40;;;4.10;99.90;;;;;;5050950;28;20401;-55
2020/12/08 03:26:24;;;;;;;28.42;15.85;;;5.70;99.90;;;;;;5048286;28;20393;-56
2020/12/08 03:28:50;;;;;;;29.37;16.07;;;3.80;99.90;;;;;;5050499;28;20413;-55
2020/12/08 03:31:16;;;;;;;28.50;15.48;;;3.60;99.90;;;;;;5050825;28;20954;-55
2020/12/08 03:33:42;;;;;;;31.88;16.48;;;4.90;99.90;;;;;;5048157;28;20398;-55
2020/12/08 03:36:15;;;;;;;29.55;15.98;;;3.40;99.90;;;;;;5050868;28;20393;-55
2020/12/08 03:38:50;;;;;;;31.35;15.30;;;3.70;99.90;;;;;;5047795;28;20401;-55
2020/12/08 03:41:23;;;;;;;36.90;17.70;;;3.40;99.90;;;;;;5050274;28;20464;-55
2020/12/08 03:43:50;;;;;;;29.65;16.20;;;3.10;99.90;;;;;;5050139;28;20465;-57
2020/12/08 03:46:24;;;;;;;36.10;17.90;;;3.10;99.90;;;;;;5048780;28;20863;-55
2020/12/08 03:48:50;;;;;;;29.60;15.40;;;3.10;99.90;;;;;;5050417;28;20408;-55
2020/12/08 03:51:18;;;;;;;32.15;15.70;;;3.10;99.90;;;;;;5049032;28;20497;-55
2020/12/08 03:53:44;;;;;;;31.90;16.33;;;3.50;99.90;;;;;;5049598;28;20404;-55
2020/12/08 03:56:17;;;;;;;33.20;16.77;;;4.60;99.90;;;;;;5049518;28;20382;-55
2020/12/08 03:58:44;;;;;;;32.57;17.17;;;2.90;99.90;;;;;;5047923;28;20405;-55
2020/12/08 04:01:18;;;;;;;35.35;17.80;;;5.30;99.90;;;;;;5050213;28;20447;-55
2020/12/08 04:03:45;;;;;;;36.92;17.40;;;5.00;99.90;;;;;;5049623;28;20598;-54
2020/12/08 04:06:12;;;;;;;32.47;16.70;;;2.80;99.90;;;;;;5047070;28;20412;-55
2020/12/08 04:08:45;;;;;;;35.35;17.00;;;3.00;99.90;;;;;;5049142;28;20432;-55
2020/12/08 04:11:12;;;;;;;33.38;16.85;;;3.10;99.90;;;;;;5047465;28;20389;-58
2020/12/08 04:13:38;;;;;;;32.45;16.77;;;2.80;99.90;;;;;;5048839;28;20396;-55
2020/12/08 04:16:03;;;;;;;33.72;16.20;;;2.70;99.90;;;;;;5049773;28;20374;-55
2020/12/08 04:18:29;;;;;;;35.30;17.50;;;2.90;99.90;;;;;;5047339;28;20405;-55
2020/12/08 04:20:55;;;;;;;31.80;17.67;;;2.70;99.90;;;;;;5047814;28;20424;-54
2020/12/08 04:23:22;;;;;;;36.58;17.83;;;2.60;99.90;;;;;;5048688;28;20500;-60
2020/12/08 04:25:48;;;;;;;33.25;17.35;;;2.50;99.90;;;;;;5047883;28;20468;-55
2020/12/08 04:28:14;;;;;;;34.75;17.35;;;3.30;99.90;;;;;;5049807;28;20421;-55
2020/12/08 04:30:40;;;;;;;31.37;16.80;;;2.40;99.90;;;;;;5045146;28;20810;-56
2020/12/08 04:33:06;;;;;;;34.85;18.35;;;3.90;99.90;;;;;;5049064;28;20751;-55
2020/12/08 04:35:32;;;;;;;39.90;19.70;;;2.40;99.90;;;;;;5047804;28;20406;-55
2020/12/08 04:37:58;;;;;;;36.50;19.27;;;2.40;99.90;;;;;;5047984;28;20458;-55
2020/12/08 04:40:24;;;;;;;38.15;19.83;;;2.40;99.90;;;;;;5047224;28;20808;-60
2020/12/08 04:42:53;;;;;;;40.13;19.60;;;3.40;99.90;;;;;;5047857;28;20528;-55
2020/12/08 04:45:21;;;;;;;38.22;19.33;;;3.50;99.90;;;;;;5048649;28;20378;-55
2020/12/08 04:47:48;;;;;;;36.50;17.73;;;3.40;99.90;;;;;;5048766;28;20830;-56
2020/12/08 04:50:16;;;;;;;37.10;16.95;;;2.50;99.90;;;;;;5047567;28;20945;-54
2020/12/08 04:52:43;;;;;;;35.10;17.92;;;2.50;99.90;;;;;;5048993;28;20402;-54
2020/12/08 04:55:09;;;;;;;35.05;19.13;;;3.80;99.90;;;;;;5049553;28;20404;-55
2020/12/08 04:57:35;;;;;;;35.60;17.60;;;2.50;99.90;;;;;;5047236;28;20867;-56
2020/12/08 05:00:09;;;;;;;38.78;19.50;;;4.20;99.90;;;;;;5049444;28;20433;-54
2020/12/08 05:02:52;;;;;;;37.13;19.40;;;4.70;99.90;;;;;;5048795;28;20473;-55
2020/12/08 05:05:19;;;;;;;39.30;18.50;;;2.40;99.90;;;;;;5046587;28;20871;-54
2020/12/08 05:07:45;;;;;;;34.30;17.52;;;3.00;99.90;;;;;;5050479;28;20388;-54
2020/12/08 05:10:12;;;;;;;41.83;19.05;;;2.40;99.90;;;;;;5050530;28;20398;-55
2020/12/08 05:12:38;;;;;;;37.75;19.10;;;4.00;99.90;;;;;;5047448;28;20391;-61
2020/12/08 05:15:10;;;;;;;38.15;18.35;;;2.60;99.90;;;;;;5047121;28;22669;-55
2020/12/08 05:17:35;;;;;;;35.30;17.20;;;2.60;99.90;;;;;;5043524;28;20398;-56
2020/12/08 05:20:12;;;;;;;35.90;19.17;;;2.60;99.90;;;;;;5053467;28;20409;-55
2020/12/08 05:22:51;;;;;;;34.30;17.55;;;4.00;99.90;;;;;;5050505;28;20910;-54
2020/12/08 05:25:16;;;;;;;38.03;20.00;;;2.60;99.90;;;;;;5052380;28;20385;-57
2020/12/08 05:27:48;;;;;;;36.57;18.00;;;4.00;99.90;;;;;;5049381;28;20855;-55
2020/12/08 05:30:14;;;;;;;38.83;18.75;;;3.40;99.90;;;;;;5050555;28;20409;-55
2020/12/08 05:32:41;;;;;;;37.60;17.80;;;4.90;99.90;;;;;;5052208;28;20385;-56
2020/12/08 05:35:09;;;;;;;38.10;19.30;;;2.60;99.90;;;;;;5049774;28;20480;-55
2020/12/08 05:37:43;;;;;;;36.97;17.75;;;2.50;99.90;;;;;;5051989;28;20396;-56
2020/12/08 05:40:29;;;;;;;35.88;17.67;;;2.50;99.90;;;;;;5060080;28;20479;-55
2020/12/08 05:42:56;;;;;;;35.55;17.77;;;2.50;99.90;;;;;;5056189;28;20886;-55
2020/12/08 05:45:24;;;;;;;42.85;21.48;;;2.60;99.90;;;;;;5055477;28;20397;-60
2020/12/08 05:47:58;;;;;;;37.55;18.30;;;0.00;99.90;;;;;;5059983;28;20379;-54
2020/12/08 05:50:26;;;;;;;34.30;17.70;;;2.50;99.90;;;;;;5044785;28;20432;-58
2020/12/08 05:52:54;;;;;;;39.00;19.87;;;2.50;99.90;;;;;;5037982;28;20412;-55
2020/12/08 05:55:23;;;;;;;40.15;19.50;;;2.50;99.90;;;;;;5056403;28;20872;-55
2020/12/08 05:57:49;;;;;;;39.00;19.90;;;3.40;99.90;;;;;;5041894;28;20512;-55
2020/12/08 06:00:29;;;;;;;38.92;19.58;;;3.70;99.90;;;;;;5049665;28;20413;-55
2020/12/08 06:03:06;;;;;;;37.17;18.83;;;2.70;99.90;;;;;;5051103;28;20398;-55
2020/12/08 06:05:33;;;;;;;40.37;18.40;;;2.70;99.90;;;;;;5049840;28;20425;-55
2020/12/08 06:07:59;;;;;;;32.70;17.05;;;3.30;99.90;;;;;;5050087;28;20409;-54
2020/12/08 06:10:26;;;;;;;37.17;19.08;;;4.30;99.90;;;;;;5040804;28;20409;-59
2020/12/08 06:13:01;;;;;;;32.00;16.33;;;2.90;99.90;;;;;;5045523;28;20386;-56
2020/12/08 06:15:38;;;;;;;36.17;18.33;;;2.80;99.90;;;;;;5045580;28;20451;-59
2020/12/08 06:18:04;;;;;;;35.95;17.77;;;2.70;99.90;;;;;;5034518;28;20387;-55
2020/12/08 06:20:29;;;;;;;32.50;16.23;;;3.60;99.90;;;;;;5033023;28;20400;-55
2020/12/08 06:22:58;;;;;;;37.00;18.97;;;4.40;99.90;;;;;;5044503;28;20746;-55
2020/12/08 06:25:27;;;;;;;39.00;18.02;;;2.80;99.90;;;;;;5041939;28;20520;-59
2020/12/08 06:27:58;;;;;;;36.25;16.92;;;3.80;99.90;;;;;;5039569;28;20420;-54
2020/12/08 06:30:24;;;;;;;39.97;18.98;;;2.70;99.90;;;;;;5042965;28;20743;-60
2020/12/08 06:32:50;;;;;;;38.13;17.55;;;2.80;99.90;;;;;;5037308;28;20397;-60
2020/12/08 06:35:17;;;;;;;36.20;18.30;;;2.70;99.90;;;;;;5040060;28;20739;-54
2020/12/08 06:37:53;;;;;;;35.33;18.30;;;2.80;99.90;;;;;;5043425;28;20398;-55
2020/12/08 06:40:22;;;;;;;36.50;17.95;;;2.80;99.90;;;;;;5049360;28;20389;-54
2020/12/08 06:42:49;;;;;;;36.37;18.73;;;2.90;99.90;;;;;;5047261;28;20402;-54
2020/12/08 06:45:17;;;;;;;39.20;18.60;;;2.60;99.90;;;;;;5049607;28;20484;-54
2020/12/08 06:47:45;;;;;;;35.67;18.15;;;4.20;99.90;;;;;;5040666;28;21266;-55
2020/12/08 06:50:31;;;;;;;33.00;17.63;;;3.90;99.90;;;;;;5036595;28;20406;-55
2020/12/08 06:52:59;;;;;;;37.57;18.20;;;2.80;99.90;;;;;;5039045;28;20415;-54
2020/12/08 06:55:26;;;;;;;36.40;17.27;;;2.40;99.90;;;;;;5038872;28;20444;-58
2020/12/08 06:57:52;;;;;;;38.88;19.00;;;2.40;99.90;;;;;;5029256;28;20399;-55
2020/12/08 07:00:19;;;;;;;40.20;18.70;;;2.40;99.90;;;;;;5047418;28;20408;-54
2020/12/08 07:02:50;;;;;;;38.45;19.13;;;2.30;99.90;;;;;;5044585;28;20643;-54
2020/12/08 07:05:23;;;;;;;39.10;18.13;;;3.30;99.90;;;;;;5038078;28;20415;-54
2020/12/08 07:07:50;;;;;;;38.35;18.02;;;2.10;99.90;;;;;;5045292;28;20462;-54
2020/12/08 07:10:19;;;;;;;36.83;18.50;;;2.00;99.90;;;;;;5045387;28;20395;-55
2020/12/08 07:12:49;;;;;;;36.75;17.58;;;2.00;99.90;;;;;;5039917;28;20752;-54
2020/12/08 07:15:32;;;;;;;36.90;18.45;;;1.90;99.90;;;;;;5043037;28;20407;-55
2020/12/08 07:18:06;;;;;;;38.80;19.70;;;1.80;99.90;;;;;;5044014;28;20385;-55
2020/12/08 07:20:33;;;;;;;37.13;18.38;;;1.80;99.90;;;;;;5039404;28;20396;-55
2020/12/08 07:23:04;;;;;;;41.47;18.73;;;1.80;99.90;;;;;;5041572;28;20395;-57
2020/12/08 07:25:30;;;;;;;39.35;18.50;;;1.90;99.90;;;;;;5039850;28;20389;-54
2020/12/08 07:27:56;;;;;;;39.22;18.05;;;1.90;99.90;;;;;;5044319;28;20458;-55
2020/12/08 07:30:24;;;;;;;39.08;18.95;;;1.90;99.90;;;;;;5041728;28;20498;-57
2020/12/08 07:32:51;;;;;;;40.47;19.15;;;2.00;99.90;;;;;;5039035;28;20393;-54
2020/12/08 07:35:29;;;;;;;38.23;18.73;;;2.10;99.90;;;;;;5039337;28;20898;-54
2020/12/08 07:37:57;;;;;;;39.35;18.35;;;4.10;99.90;;;;;;5046449;28;20398;-55
2020/12/08 07:40:35;;;;;;;37.15;18.63;;;2.30;99.90;;;;;;5042726;28;20409;-55
2020/12/08 07:43:02;;;;;;;35.28;17.85;;;2.50;99.90;;;;;;5037125;28;20383;-56
2020/12/08 07:45:28;;;;;;;35.30;17.05;;;2.50;99.90;;;;;;5038941;28;20465;-61
2020/12/08 07:47:59;;;;;;;37.08;17.65;;;2.60;99.90;;;;;;5070615;28;20406;-55
2020/12/08 07:50:31;;;;;;;36.70;17.88;;;2.70;99.90;;;;;;5026840;28;20395;-62
2020/12/08 07:52:59;;;;;;;41.33;19.33;;;2.60;99.90;;;;;;5044678;28;20926;-55
2020/12/08 07:55:26;;;;;;;43.17;22.98;;;2.60;99.90;;;;;;5045512;28;20397;-61
2020/12/08 07:57:52;;;;;;;44.47;21.38;;;2.60;99.90;;;;;;5036223;28;20385;-55
2020/12/08 08:00:18;;;;;;;42.03;19.73;;;2.70;99.90;;;;;;5035126;28;20744;-55
2020/12/08 08:02:43;;;;;;;33.78;17.27;;;2.80;99.90;;;;;;5039017;28;20403;-55
2020/12/08 08:05:09;;;;;;;34.23;17.93;;;4.80;99.90;;;;;;5035013;28;20399;-55
2020/12/08 08:07:34;;;;;;;34.95;18.33;;;2.80;99.90;;;;;;5042238;28;20475;-55
2020/12/08 08:10:00;;;;;;;37.60;18.03;;;3.10;99.90;;;;;;5047114;28;20879;-57
2020/12/08 08:12:26;;;;;;;36.83;17.77;;;3.00;99.90;;;;;;5038098;28;20516;-61
2020/12/08 08:14:51;;;;;;;37.20;18.75;;;3.20;99.90;;;;;;5037614;28;21193;-55
2020/12/08 08:17:17;;;;;;;37.85;19.88;;;4.60;99.90;;;;;;5041952;28;20385;-55
2020/12/08 08:19:43;;;;;;;35.80;18.00;;;3.30;99.90;;;;;;5039110;28;20837;-55
2020/12/08 08:22:08;;;;;;;35.17;17.10;;;3.50;99.90;;;;;;5043976;28;20442;-58
2020/12/08 08:24:34;;;;;;;37.17;18.50;;;3.30;99.90;;;;;;5040909;28;20408;-55
2020/12/08 08:27:00;;;;;;;36.57;17.53;;;5.90;99.90;;;;;;5046073;28;20515;-56
2020/12/08 08:29:25;;;;;;;34.35;17.20;;;3.50;99.90;;;;;;5043921;28;20421;-61
2020/12/08 08:31:51;;;;;;;36.58;17.90;;;3.70;99.90;;;;;;5036048;28;20887;-59
2020/12/08 08:34:16;;;;;;;35.83;17.87;;;3.70;99.90;;;;;;5043447;28;20790;-55
2020/12/08 08:36:50;;;;;;;36.33;17.83;;;3.90;99.90;;;;;;5041818;28;20419;-58
2020/12/08 08:39:16;;;;;;;32.60;16.95;;;3.90;99.90;;;;;;5034058;28;20394;-56
2020/12/08 08:41:42;;;;;;;33.50;18.10;;;3.90;99.90;;;;;;5043680;28;20432;-55
2020/12/08 08:44:07;;;;;;;32.40;16.42;;;4.00;99.90;;;;;;5041122;28;20524;-56
2020/12/08 08:46:33;;;;;;;34.45;16.90;;;4.10;99.90;;;;;;5044841;28;20894;-55
2020/12/08 08:48:59;;;;;;;33.43;17.63;;;4.20;99.90;;;;;;5034856;28;20417;-56
2020/12/08 08:51:24;;;;;;;41.33;21.10;;;4.40;99.90;;;;;;5042144;28;20436;-62
2020/12/08 08:53:50;;;;;;;37.70;18.90;;;4.80;99.90;;;;;;5044601;28;20760;-55
2020/12/08 08:56:18;;;;;;;41.23;19.47;;;5.30;99.90;;;;;;5037952;28;20459;-55
2020/12/08 08:58:44;;;;;;;39.37;19.93;;;6.40;99.90;;;;;;5038658;28;20424;-58
2020/12/08 09:01:10;;;;;;;28.03;15.40;;;7.20;99.90;;;;;;5036450;28;20422;-56
2020/12/08 09:03:36;;;;;;;33.10;16.90;;;7.20;99.90;;;;;;5040606;28;20403;-56
2020/12/08 09:06:01;;;;;;;31.43;15.40;;;6.60;99.90;;;;;;5037299;28;20410;-55
2020/12/08 09:08:27;;;;;;;31.02;17.30;;;6.20;99.90;;;;;;5034802;28;20889;-61
2020/12/08 09:10:54;;;;;;;31.15;16.38;;;6.10;99.90;;;;;;5041280;28;20409;-56
2020/12/08 09:13:19;;;;;;;33.90;17.02;;;6.20;99.90;;;;;;5042623;28;20391;-55
2020/12/08 09:15:45;;;;;;;36.42;18.58;;;5.80;99.90;;;;;;5041084;28;20414;-57
2020/12/08 09:18:11;;;;;;;31.73;17.50;;;5.70;99.90;;;;;;5042324;28;20424;-59
2020/12/08 09:20:37;;;;;;;30.55;15.80;;;6.30;99.90;;;;;;5036960;28;20428;-57
2020/12/08 09:23:03;;;;;;;27.57;14.97;;;7.30;99.90;;;;;;5035024;28;20418;-59
2020/12/08 09:25:29;;;;;;;28.85;15.55;;;7.70;99.90;;;;;;5038644;28;20384;-61
2020/12/08 09:27:55;;;;;;;26.15;14.30;;;8.10;99.90;;;;;;5042120;28;20398;-60
2020/12/08 09:30:22;;;;;;;30.10;15.65;;;8.60;99.90;;;;;;5038468;28;20737;-59
2020/12/08 09:32:49;;;;;;;29.23;15.90;;;9.60;99.90;;;;;;5035925;28;20397;-57
2020/12/08 09:35:16;;;;;;;27.05;14.63;;;10.20;99.90;;;;;;5044835;28;20463;-57
2020/12/08 09:37:43;;;;;;;26.30;14.98;;;11.30;99.90;;;;;;5036974;28;20421;-59
2020/12/08 09:40:10;;;;;;;28.33;15.70;;;12.00;99.90;;;;;;5044565;28;20408;-57
2020/12/08 09:42:40;;;;;;;26.67;15.95;;;12.50;97.60;;;;;;5042841;28;20384;-58
2020/12/08 09:45:07;;;;;;;25.65;14.23;;;13.00;97.40;;;;;;5036169;28;20401;-56
2020/12/08 09:47:33;;;;;;;25.27;14.95;;;13.60;95.20;;;;;;5035975;28;20406;-56
2020/12/08 09:49:59;;;;;;;26.25;14.80;;;13.90;93.60;;;;;;5040011;28;20978;-57
2020/12/08 09:52:30;;;;;;;23.80;14.43;;;14.70;92.00;;;;;;5039687;28;20502;-61
2020/12/08 09:54:56;;;;;;;25.80;15.40;;;15.70;89.40;;;;;;5042494;28;20446;-56
2020/12/08 09:57:24;;;;;;;24.98;15.10;;;15.10;85.50;;;;;;5047235;28;20387;-57
2020/12/08 09:59:53;;;;;;;25.20;15.10;;;14.60;85.70;;;;;;5039354;28;20409;-58
2020/12/08 10:02:20;;;;;;;26.33;15.05;;;14.20;86.20;;;;;;5041446;28;20798;-56
2020/12/08 10:04:47;;;;;;;32.97;17.08;;;13.60;90.20;;;;;;5037727;28;20409;-57
2020/12/08 10:07:18;;;;;;;25.10;15.15;;;13.70;89.60;;;;;;5043132;28;20429;-56
2020/12/08 10:09:45;;;;;;;24.52;13.13;;;14.00;89.10;;;;;;5044986;28;20499;-56
2020/12/08 10:12:11;;;;;;;28.27;16.27;;;14.00;86.90;;;;;;5045398;28;20419;-56
2020/12/08 10:14:37;;;;;;;26.63;14.70;;;13.50;88.60;;;;;;5049851;28;20782;-57
2020/12/08 10:17:03;;;;;;;24.77;14.35;;;13.20;90.00;;;;;;5046160;28;20732;-57
2020/12/08 10:19:29;;;;;;;24.48;14.73;;;13.30;90.50;;;;;;5039147;28;20397;-62
2020/12/08 10:21:56;;;;;;;26.47;14.40;;;13.90;88.40;;;;;;5042406;28;21279;-56
2020/12/08 10:24:21;;;;;;;26.02;14.40;;;13.80;88.30;;;;;;5044674;28;20428;-56
2020/12/08 10:26:47;;;;;;;26.95;14.20;;;14.10;90.30;;;;;;5039877;28;20417;-56
2020/12/08 10:29:14;;;;;;;23.07;13.70;;;14.40;85.60;;;;;;5036825;28;20863;-56
2020/12/08 10:31:40;;;;;;;26.58;14.90;;;14.00;84.10;;;;;;5039558;28;20491;-57
2020/12/08 10:34:06;;;;;;;25.48;15.13;;;13.60;86.30;;;;;;5036499;28;20401;-59
2020/12/08 10:36:31;;;;;;;25.45;14.48;;;13.40;88.10;;;;;;5042278;28;20969;-56
2020/12/08 10:38:57;;;;;;;26.57;15.07;;;13.50;88.40;;;;;;5042842;28;20448;-61
2020/12/08 10:41:28;;;;;;;26.40;15.18;;;13.30;89.90;;;;;;5046086;28;20394;-56
2020/12/08 10:43:54;;;;;;;25.55;15.68;;;12.90;90.90;;;;;;5036087;28;20390;-56
2020/12/08 10:46:20;;;;;;;26.13;14.83;;;12.80;91.40;;;;;;5039083;28;20397;-56
2020/12/08 10:48:46;;;;;;;25.17;14.80;;;13.10;91.50;;;;;;5041223;28;20416;-57
2020/12/08 10:51:12;;;;;;;27.30;16.10;;;13.30;91.50;;;;;;5042659;28;20871;-56
2020/12/08 10:53:37;;;;;;;26.27;14.90;;;13.40;91.50;;;;;;5043306;28;20441;-56
2020/12/08 10:56:03;;;;;;;25.38;15.32;;;13.50;90.70;;;;;;5044313;28;20436;-56
2020/12/08 10:58:29;;;;;;;24.90;15.05;;;12.90;91.40;;;;;;5043718;28;21252;-60
2020/12/08 11:00:55;;;;;;;25.25;15.07;;;12.60;91.90;;;;;;5039627;28;20902;-56
2020/12/08 11:03:21;;;;;;;25.77;14.73;;;13.40;90.50;;;;;;5041851;28;20417;-56
2020/12/08 11:05:47;;;;;;;27.00;15.35;;;13.70;87.50;;;;;;5036582;28;20879;-56
2020/12/08 11:08:13;;;;;;;30.10;16.58;;;13.60;90.60;;;;;;5042903;28;20478;-56
2020/12/08 11:10:39;;;;;;;28.50;15.10;;;12.50;92.30;;;;;;5043035;28;20834;-58
2020/12/08 11:13:05;;;;;;;24.08;14.05;;;12.60;92.20;;;;;;5049694;28;20389;-54
2020/12/08 11:15:30;;;;;;;26.27;14.80;;;12.50;91.30;;;;;;5042450;28;20403;-55
2020/12/08 11:17:56;;;;;;;27.03;14.70;;;12.40;91.00;;;;;;5039139;28;20389;-54
2020/12/08 11:20:22;;;;;;;27.08;14.85;;;12.10;92.00;;;;;;5037903;28;20735;-55
2020/12/08 11:22:48;;;;;;;24.70;13.80;;;11.60;94.20;;;;;;5042739;28;20393;-54
2020/12/08 11:25:14;;;;;;;27.05;13.52;;;10.90;93.60;;;;;;5041588;28;20399;-58
2020/12/08 11:27:40;;;;;;;27.60;14.40;;;10.30;94.90;;;;;;5040270;28;20398;-53
2020/12/08 11:30:06;;;;;;;25.60;14.13;;;9.70;99.90;;;;;;5070359;28;20434;-54
2020/12/08 11:32:32;;;;;;;24.15;14.73;;;9.20;99.30;;;;;;5041411;28;20401;-54
2020/12/08 11:34:57;;;;;;;24.90;14.70;;;8.90;99.90;;;;;;5038199;28;20396;-56
2020/12/08 11:37:26;;;;;;;23.95;13.85;;;8.90;99.90;;;;;;5037235;28;20485;-53
2020/12/08 11:39:52;;;;;;;25.27;13.75;;;8.50;99.90;;;;;;5043184;28;20393;-55
2020/12/08 11:42:17;;;;;;;27.13;14.23;;;8.40;99.90;;;;;;5041882;28;20394;-53
2020/12/08 11:44:46;;;;;;;25.47;15.57;;;8.20;99.90;;;;;;5036677;28;20799;-53
2020/12/08 11:47:12;;;;;;;25.27;13.13;;;8.10;99.90;;;;;;5048428;28;20424;-53
2020/12/08 11:49:38;;;;;;;27.90;14.38;;;8.10;99.90;;;;;;5040579;28;20414;-54
2020/12/08 11:52:05;;;;;;;27.42;13.80;;;7.90;99.90;;;;;;5044447;28;20411;-54
2020/12/08 11:54:31;;;;;;;25.90;14.45;;;7.60;99.90;;;;;;5041297;28;20477;-59
2020/12/08 11:56:57;;;;;;;26.10;13.82;;;7.40;99.90;;;;;;5039794;28;20506;-52
2020/12/08 11:59:23;;;;;;;25.90;13.73;;;7.50;99.90;;;;;;5047311;28;20405;-54
2020/12/08 12:01:48;;;;;;;26.55;14.43;;;7.40;99.90;;;;;;5044897;28;20877;-53
2020/12/08 12:04:14;;;;;;;29.55;13.90;;;7.60;99.90;;;;;;5033925;28;20412;-52
2020/12/08 12:06:40;;;;;;;26.47;13.60;;;8.00;99.90;;;;;;5039620;28;20879;-53
2020/12/08 12:09:06;;;;;;;26.15;13.45;;;8.20;99.90;;;;;;5040267;28;20433;-56
2020/12/08 12:11:32;;;;;;;23.00;12.50;;;8.40;99.90;;;;;;5041493;28;20409;-52
2020/12/08 12:13:57;;;;;;;24.47;13.13;;;8.30;99.90;;;;;;5045131;28;20397;-51
2020/12/08 12:16:23;;;;;;;23.90;13.25;;;8.20;99.90;;;;;;5046108;28;20465;-51
2020/12/08 12:18:49;;;;;;;25.03;12.43;;;8.30;99.90;;;;;;5040123;28;20394;-52
2020/12/08 12:21:14;;;;;;;25.90;12.85;;;8.50;99.90;;;;;;5043882;28;20409;-52
2020/12/08 12:23:41;;;;;;;22.25;12.60;;;8.40;99.90;;;;;;5041709;28;20804;-52
2020/12/08 12:26:06;;;;;;;25.73;12.70;;;8.30;99.90;;;;;;5042267;28;20433;-56
2020/12/08 12:28:34;;;;;;;26.27;13.27;;;8.10;99.90;;;;;;5044187;28;20836;-52
2020/12/08 12:31:01;;;;;;;25.25;13.63;;;7.90;99.90;;;;;;5069427;28;20418;-55
2020/12/08 12:33:27;;;;;;;26.30;14.30;;;7.70;99.90;;;;;;5039673;28;20905;-57
2020/12/08 12:35:52;;;;;;;28.25;14.57;;;7.50;99.90;;;;;;5040888;28;20889;-51